createdAt,value
2023-01-31T00:01:24.202Z,-0.73
2023-01-31T00:03:55.445Z,-0.67
2023-01-31T00:06:24.569Z,-0.60
2023-01-31T00:08:51.841Z,-0.56
2023-01-31T00:11:19.982Z,-0.54
2023-01-31T00:13:47.258Z,-0.54
2023-01-31T00:16:15.243Z,-0.50
2023-01-31T00:18:42.483Z,-0.50
2023-01-31T00:21:20.722Z,-0.47
2023-01-31T00:23:48.252Z,-0.45
2023-01-31T00:26:21.437Z,-0.44
2023-01-31T00:28:49.994Z,-0.49
2023-01-31T00:31:19.401Z,-0.50
2023-01-31T00:33:49.309Z,-0.59
2023-01-31T00:36:18.859Z,-0.68
2023-01-31T00:38:48.855Z,-0.76
2023-01-31T00:41:21.422Z,-0.72
2023-01-31T00:43:48.723Z,-0.66
2023-01-31T00:46:16.147Z,-0.64
2023-01-31T00:48:43.002Z,-0.63
2023-01-31T00:51:09.891Z,-0.60
2023-01-31T00:53:37.299Z,-0.60
2023-01-31T00:56:16.213Z,-0.60
2023-01-31T00:58:43.353Z,-0.61
2023-01-31T01:01:17.904Z,-0.57
2023-01-31T01:03:45.888Z,-0.59
2023-01-31T01:06:13.684Z,-0.57
2023-01-31T01:08:42.798Z,-0.56
2023-01-31T01:11:18.834Z,-0.57
2023-01-31T01:13:45.884Z,-0.60
2023-01-31T01:16:24.349Z,-0.63
2023-01-31T01:18:51.758Z,-0.66
2023-01-31T01:21:22.038Z,-0.73
2023-01-31T01:23:49.365Z,-0.75
2023-01-31T01:26:20.116Z,-0.75
2023-01-31T01:28:49.987Z,-0.83
2023-01-31T01:31:17.838Z,-0.84
2023-01-31T01:33:46.448Z,-0.69
2023-01-31T01:36:16.241Z,-0.46
2023-01-31T01:38:44.358Z,-0.21
2023-01-31T01:41:12.137Z,-0.01
2023-01-31T01:43:41.964Z,0.17
2023-01-31T01:46:11.480Z,0.32
2023-01-31T01:48:38.956Z,0.44
2023-01-31T01:51:06.954Z,0.56
2023-01-31T01:53:35.326Z,0.61
2023-01-31T01:56:06.192Z,0.63
2023-01-31T01:58:38.209Z,0.65
2023-01-31T02:01:06.744Z,0.67
2023-01-31T02:03:33.784Z,0.69
2023-01-31T02:06:06.664Z,0.75
2023-01-31T02:08:35.998Z,0.77
2023-01-31T02:11:16.184Z,0.77
2023-01-31T02:13:43.599Z,0.71
2023-01-31T02:16:14.725Z,0.71
2023-01-31T02:18:42.706Z,0.71
2023-01-31T02:21:25.034Z,0.69
2023-01-31T02:24:29.260Z,0.69
2023-01-31T02:27:08.148Z,0.67
2023-01-31T02:29:38.126Z,0.68
2023-01-31T02:32:36.606Z,0.76
2023-01-31T02:35:45.445Z,0.79
2023-01-31T02:38:28.227Z,0.71
2023-01-31T02:41:25.104Z,0.77
2023-01-31T02:44:19.262Z,0.79
2023-01-31T02:46:52.278Z,0.80
2023-01-31T02:49:37.927Z,0.75
2023-01-31T02:52:30.442Z,0.73
2023-01-31T02:55:37.725Z,0.74
2023-01-31T02:58:07.312Z,0.76
2023-01-31T03:00:36.671Z,0.80
2023-01-31T03:03:06.706Z,0.84
2023-01-31T03:05:33.738Z,0.85
2023-01-31T03:08:05.092Z,0.82
2023-01-31T03:10:44.699Z,0.86
2023-01-31T03:13:24.133Z,0.76
2023-01-31T03:16:27.484Z,0.70
2023-01-31T03:19:13.863Z,0.60
2023-01-31T03:21:45.866Z,0.59
2023-01-31T03:24:13.677Z,0.52
2023-01-31T03:26:41.271Z,0.52
2023-01-31T03:29:08.979Z,0.50
2023-01-31T03:31:40.265Z,0.42
2023-01-31T03:34:09.449Z,0.37
2023-01-31T03:36:39.483Z,0.33
2023-01-31T03:39:55.608Z,0.30
2023-01-31T03:42:26.579Z,0.21
2023-01-31T03:44:59.797Z,0.20
2023-01-31T03:47:31.564Z,0.19
2023-01-31T03:50:01.786Z,0.16
2023-01-31T03:52:36.134Z,0.15
2023-01-31T03:55:10.076Z,0.13
2023-01-31T03:57:40.342Z,0.07
2023-01-31T04:00:10.469Z,-0.03
2023-01-31T04:02:53.552Z,-0.01
2023-01-31T04:05:23.501Z,-0.02
2023-01-31T04:07:54.428Z,0.01
2023-01-31T04:10:23.653Z,-0.03
2023-01-31T04:12:50.455Z,-0.05
2023-01-31T04:15:17.505Z,-0.14
2023-01-31T04:17:44.915Z,-0.09
2023-01-31T04:20:13.246Z,-0.10
2023-01-31T04:22:40.136Z,-0.11
2023-01-31T04:25:07.867Z,-0.18
2023-01-31T04:27:34.602Z,-0.22
2023-01-31T04:30:01.446Z,-0.25
2023-01-31T04:32:28.939Z,-0.28
2023-01-31T04:34:55.814Z,-0.30
2023-01-31T04:37:22.613Z,-0.34
2023-01-31T04:39:50.156Z,-0.35
2023-01-31T04:42:17.017Z,-0.38
2023-01-31T04:44:43.839Z,-0.42
2023-01-31T04:47:10.636Z,-0.45
2023-01-31T04:49:37.394Z,-0.46
2023-01-31T04:52:04.372Z,-0.43
2023-01-31T04:54:31.675Z,-0.49
2023-01-31T04:56:58.493Z,-0.48
2023-01-31T04:59:26.447Z,-0.51
2023-01-31T05:01:53.237Z,-0.53
2023-01-31T05:04:22.263Z,-0.49
2023-01-31T05:06:49.106Z,-0.45
2023-01-31T05:09:16.749Z,-0.43
2023-01-31T05:11:44.161Z,-0.44
2023-01-31T05:14:11.433Z,-0.40
2023-01-31T05:16:38.256Z,-0.37
2023-01-31T05:19:05.446Z,-0.36
2023-01-31T05:21:52.240Z,-0.32
2023-01-31T05:24:20.343Z,-0.30
2023-01-31T05:26:47.838Z,-0.30
2023-01-31T05:29:14.967Z,-0.28
2023-01-31T05:31:42.106Z,-0.30
2023-01-31T05:34:10.344Z,-0.31
2023-01-31T05:36:37.290Z,-0.27
2023-01-31T05:39:04.105Z,-0.23
2023-01-31T05:41:31.241Z,-0.20
2023-01-31T05:43:58.027Z,-0.24
2023-01-31T05:46:24.821Z,-0.28
2023-01-31T05:48:51.746Z,-0.25
2023-01-31T05:51:18.537Z,-0.24
2023-01-31T05:53:45.338Z,-0.22
2023-01-31T05:56:12.166Z,-0.22
2023-01-31T05:58:38.922Z,-0.21
2023-01-31T06:01:05.678Z,-0.21
2023-01-31T06:03:32.472Z,-0.18
2023-01-31T06:05:59.291Z,-0.15
2023-01-31T06:08:26.225Z,-0.17
2023-01-31T06:10:53.013Z,-0.13
2023-01-31T06:13:19.825Z,-0.12
2023-01-31T06:15:46.627Z,-0.10
2023-01-31T06:18:13.433Z,-0.08
2023-01-31T06:20:40.399Z,-0.07
2023-01-31T06:23:07.114Z,-0.07
2023-01-31T06:25:33.824Z,-0.02
2023-01-31T06:28:00.649Z,-0.02
2023-01-31T06:30:27.491Z,0.05
2023-01-31T06:32:54.387Z,0.06
2023-01-31T06:35:21.404Z,0.09
2023-01-31T06:37:48.419Z,0.16
2023-01-31T06:40:15.275Z,0.20
2023-01-31T06:42:42.079Z,0.22
2023-01-31T06:45:09.527Z,0.22
2023-01-31T06:47:36.555Z,0.16
2023-01-31T06:50:04.063Z,0.18
2023-01-31T06:52:30.869Z,0.17
2023-01-31T06:54:57.816Z,0.23
2023-01-31T06:57:24.588Z,0.27
2023-01-31T06:59:51.398Z,0.32
2023-01-31T07:02:18.323Z,0.30
2023-01-31T07:04:45.160Z,0.28
2023-01-31T07:07:12.020Z,0.30
2023-01-31T07:09:38.783Z,0.34
2023-01-31T07:12:05.769Z,0.37
2023-01-31T07:14:32.615Z,0.37
2023-01-31T07:16:59.308Z,0.40
2023-01-31T07:19:26.229Z,0.47
2023-01-31T07:21:52.993Z,0.46
2023-01-31T07:24:19.771Z,0.56
2023-01-31T07:26:46.707Z,0.56
2023-01-31T07:29:13.640Z,0.53
2023-01-31T07:31:40.407Z,0.51
2023-01-31T07:34:07.163Z,0.53
2023-01-31T07:36:33.921Z,0.57
2023-01-31T07:39:02.007Z,0.57
2023-01-31T07:41:28.860Z,0.58
2023-01-31T07:43:55.615Z,0.62
2023-01-31T07:46:22.362Z,0.63
2023-01-31T07:48:49.763Z,0.63
2023-01-31T07:51:16.707Z,0.63
2023-01-31T07:53:44.538Z,0.67
2023-01-31T07:56:16.784Z,0.71
2023-01-31T07:58:45.643Z,0.68
2023-01-31T08:01:42.459Z,0.65
2023-01-31T08:04:20.940Z,0.70
2023-01-31T08:06:50.012Z,0.71
2023-01-31T08:09:16.785Z,0.78
2023-01-31T08:11:43.679Z,0.76
2023-01-31T08:14:10.505Z,0.85
2023-01-31T08:16:37.597Z,0.90
2023-01-31T08:19:04.610Z,0.98
2023-01-31T08:21:31.764Z,1.05
2023-01-31T08:23:58.530Z,1.07
2023-01-31T08:26:25.345Z,1.15
2023-01-31T08:28:54.055Z,1.25
2023-01-31T08:31:24.024Z,1.82
2023-01-31T08:33:53.292Z,2.29
2023-01-31T08:36:21.243Z,2.28
2023-01-31T08:38:49.571Z,2.13
2023-01-31T08:41:18.067Z,2.10
2023-01-31T08:43:55.865Z,2.12
2023-01-31T08:46:25.312Z,2.09
2023-01-31T08:48:52.280Z,1.95
2023-01-31T08:51:19.493Z,1.93
2023-01-31T08:53:46.654Z,1.89
2023-01-31T08:56:14.573Z,1.91
2023-01-31T08:58:43.368Z,2.29
2023-01-31T09:01:15.328Z,2.67
2023-01-31T09:03:44.695Z,2.55
2023-01-31T09:06:15.024Z,2.53
2023-01-31T09:08:41.833Z,2.96
2023-01-31T09:11:08.778Z,3.14
2023-01-31T09:13:35.640Z,3.67
2023-01-31T09:16:11.442Z,4.27
2023-01-31T09:18:39.722Z,4.58
2023-01-31T09:21:25.237Z,4.90
2023-01-31T09:24:02.363Z,5.37
2023-01-31T09:26:30.054Z,5.65
2023-01-31T09:28:58.854Z,5.82
2023-01-31T09:31:25.571Z,6.28
2023-01-31T09:33:52.557Z,6.38
2023-01-31T09:36:21.858Z,6.34
2023-01-31T09:38:48.883Z,6.43
2023-01-31T09:41:36.525Z,6.87
2023-01-31T09:44:07.213Z,7.16
2023-01-31T09:46:37.882Z,7.59
2023-01-31T09:49:08.325Z,8.10
2023-01-31T09:51:35.484Z,8.08
2023-01-31T09:54:04.876Z,8.44
2023-01-31T09:56:46.045Z,8.84
2023-01-31T09:59:37.142Z,8.94
2023-01-31T10:02:31.899Z,9.40
2023-01-31T10:05:32.995Z,9.90
2023-01-31T10:08:25.993Z,10.11
2023-01-31T10:10:55.243Z,10.55
2023-01-31T10:13:30.253Z,10.98
2023-01-31T10:16:13.279Z,10.80
2023-01-31T10:18:43.729Z,11.30
2023-01-31T10:21:16.839Z,11.77
2023-01-31T10:24:00.688Z,11.65
2023-01-31T10:26:30.699Z,12.04
2023-01-31T10:29:27.806Z,11.95
2023-01-31T10:32:27.117Z,11.56
2023-01-31T10:34:57.700Z,9.79
2023-01-31T10:37:41.791Z,8.47
2023-01-31T10:40:16.873Z,7.56
2023-01-31T10:42:50.007Z,6.97
2023-01-31T10:45:23.173Z,6.56
2023-01-31T10:48:19.721Z,6.23
2023-01-31T10:51:01.936Z,5.78
2023-01-31T10:53:53.463Z,5.48
2023-01-31T10:56:33.441Z,5.19
2023-01-31T10:59:01.930Z,4.82
2023-01-31T11:01:29.365Z,4.57
2023-01-31T11:03:57.041Z,4.52
2023-01-31T11:06:25.164Z,4.39
2023-01-31T11:09:00.525Z,4.22
2023-01-31T11:11:27.694Z,3.85
2023-01-31T11:14:01.307Z,3.66
2023-01-31T11:16:34.450Z,3.44
2023-01-31T11:19:03.766Z,3.27
2023-01-31T11:21:32.572Z,3.11
2023-01-31T11:24:05.754Z,2.98
2023-01-31T11:26:35.875Z,2.88
2023-01-31T11:29:08.414Z,2.79
2023-01-31T11:31:38.854Z,2.66
2023-01-31T11:34:29.825Z,2.64
2023-01-31T11:37:13.182Z,2.53
2023-01-31T11:39:40.245Z,2.48
2023-01-31T11:42:13.814Z,2.44
2023-01-31T11:45:13.038Z,2.41
2023-01-31T11:47:46.008Z,2.26
2023-01-31T11:50:39.735Z,2.18
2023-01-31T11:53:18.188Z,2.12
2023-01-31T11:55:46.387Z,2.00
2023-01-31T11:58:22.028Z,2.01
2023-01-31T12:00:56.701Z,1.92
2023-01-31T12:03:24.206Z,1.88
2023-01-31T12:05:59.502Z,1.79
2023-01-31T12:08:31.127Z,1.65
2023-01-31T12:10:58.980Z,1.58
2023-01-31T12:13:26.323Z,1.54
2023-01-31T12:15:58.072Z,1.52
2023-01-31T12:18:46.922Z,1.48
2023-01-31T12:21:23.213Z,1.42
2023-01-31T12:24:09.038Z,1.46
2023-01-31T12:27:18.701Z,1.51
2023-01-31T12:29:48.096Z,1.52
2023-01-31T12:32:30.628Z,1.51
2023-01-31T12:35:26.795Z,1.52
2023-01-31T12:38:18.923Z,1.54
2023-01-31T12:41:08.500Z,1.59
2023-01-31T12:43:47.474Z,1.69
2023-01-31T12:46:32.701Z,1.82
2023-01-31T12:49:26.902Z,1.84
2023-01-31T12:52:03.487Z,1.83
2023-01-31T12:54:36.770Z,1.82
2023-01-31T12:57:24.847Z,1.69
2023-01-31T13:00:13.471Z,1.61
2023-01-31T13:02:49.315Z,1.69
2023-01-31T13:05:29.992Z,1.59
2023-01-31T13:08:14.381Z,1.54
2023-01-31T13:11:09.895Z,1.42
2023-01-31T13:13:46.134Z,1.43
2023-01-31T13:16:38.730Z,1.39
2023-01-31T13:19:07.576Z,1.36
2023-01-31T13:21:39.533Z,1.42
2023-01-31T13:24:12.971Z,1.50
2023-01-31T13:26:45.760Z,1.53
2023-01-31T13:29:23.659Z,1.50
2023-01-31T13:32:04.851Z,1.52
2023-01-31T13:34:40.845Z,1.54
2023-01-31T13:37:11.615Z,1.51
2023-01-31T13:39:49.597Z,1.45
2023-01-31T13:42:17.285Z,1.48
2023-01-31T13:44:45.708Z,1.43
2023-01-31T13:47:15.099Z,1.38
2023-01-31T13:49:48.977Z,1.35
2023-01-31T13:52:21.429Z,1.32
2023-01-31T13:54:51.278Z,1.28
2023-01-31T13:57:46.592Z,1.25
2023-01-31T14:00:22.360Z,1.25
2023-01-31T14:03:05.514Z,1.26
2023-01-31T14:05:41.495Z,1.20
2023-01-31T14:08:45.729Z,1.21
2023-01-31T14:11:16.510Z,1.25
2023-01-31T14:13:47.576Z,1.14
2023-01-31T14:16:40.294Z,1.19
2023-01-31T14:19:19.267Z,1.17
2023-01-31T14:21:55.228Z,1.17
2023-01-31T14:25:00.644Z,1.14
2023-01-31T14:27:35.046Z,1.22
2023-01-31T14:30:07.587Z,1.22
2023-01-31T14:32:40.789Z,1.14
2023-01-31T14:35:13.675Z,1.10
2023-01-31T14:38:03.733Z,1.17
2023-01-31T14:41:20.862Z,1.25
2023-01-31T14:43:59.690Z,1.18
2023-01-31T14:46:48.124Z,1.10
2023-01-31T14:50:02.627Z,1.14
2023-01-31T14:52:47.087Z,1.08
2023-01-31T14:55:46.462Z,1.05
2023-01-31T14:58:22.083Z,1.06
2023-01-31T15:00:52.075Z,1.02
2023-01-31T15:03:28.449Z,0.90
2023-01-31T15:06:11.816Z,0.86
2023-01-31T15:08:47.825Z,0.81
2023-01-31T15:11:42.283Z,0.88
2023-01-31T15:14:45.203Z,0.85
2023-01-31T15:17:33.642Z,0.87
2023-01-31T15:20:22.812Z,0.88
2023-01-31T15:22:50.519Z,0.88
2023-01-31T15:25:39.760Z,0.84
2023-01-31T15:28:08.006Z,0.84
2023-01-31T15:30:36.210Z,0.80
2023-01-31T15:33:24.513Z,0.74
2023-01-31T15:36:00.688Z,0.85
2023-01-31T15:38:33.542Z,0.84
2023-01-31T15:41:13.349Z,0.79
2023-01-31T15:43:40.255Z,0.81
2023-01-31T15:46:33.577Z,0.79
2023-01-31T15:49:00.822Z,0.79
2023-01-31T15:51:28.794Z,0.78
2023-01-31T15:54:06.888Z,0.80
2023-01-31T15:56:37.844Z,0.81
2023-01-31T15:59:23.443Z,0.83
2023-01-31T16:01:52.362Z,0.79
2023-01-31T16:04:19.317Z,0.84
2023-01-31T16:06:46.601Z,0.81
2023-01-31T16:09:25.898Z,0.80
2023-01-31T16:11:54.082Z,0.83
2023-01-31T16:14:21.984Z,0.84
2023-01-31T16:16:51.992Z,0.84
2023-01-31T16:19:26.979Z,0.82
2023-01-31T16:21:54.973Z,0.84
2023-01-31T16:24:23.326Z,0.88
2023-01-31T16:26:58.221Z,0.93
2023-01-31T16:29:51.895Z,0.93
2023-01-31T16:32:21.534Z,0.85
2023-01-31T16:34:57.544Z,0.88
2023-01-31T16:37:41.205Z,0.90
2023-01-31T16:40:17.221Z,0.95
2023-01-31T16:42:44.180Z,0.97
2023-01-31T16:45:31.844Z,0.94
2023-01-31T16:48:21.691Z,0.93
2023-01-31T16:50:50.379Z,0.90
2023-01-31T16:53:30.461Z,0.92
2023-01-31T16:56:19.715Z,0.93
2023-01-31T16:58:58.364Z,0.90
2023-01-31T17:01:30.054Z,0.82
2023-01-31T17:04:23.136Z,0.80
2023-01-31T17:07:00.760Z,0.74
2023-01-31T17:09:28.502Z,0.74
2023-01-31T17:11:55.853Z,0.75
2023-01-31T17:14:23.273Z,0.79
2023-01-31T17:16:54.306Z,0.73
2023-01-31T17:19:21.284Z,0.75
2023-01-31T17:21:50.164Z,0.71
2023-01-31T17:24:19.228Z,0.76
2023-01-31T17:26:46.200Z,0.75
2023-01-31T17:29:13.034Z,0.76
2023-01-31T17:31:40.988Z,0.65
2023-01-31T17:34:13.848Z,0.67
2023-01-31T17:36:40.890Z,0.66
2023-01-31T17:39:07.927Z,0.65
2023-01-31T17:41:34.887Z,0.62
2023-01-31T17:44:06.571Z,0.66
2023-01-31T17:46:33.880Z,0.66
2023-01-31T17:49:00.741Z,0.60
2023-01-31T17:51:27.586Z,0.60
2023-01-31T17:53:54.653Z,0.60
2023-01-31T17:56:21.465Z,0.67
2023-01-31T17:58:49.545Z,0.67
2023-01-31T18:01:16.788Z,0.65
2023-01-31T18:03:43.633Z,0.61
2023-01-31T18:06:11.282Z,0.55
2023-01-31T18:08:38.435Z,0.54
2023-01-31T18:11:10.433Z,0.53
2023-01-31T18:13:38.523Z,0.56
2023-01-31T18:16:06.415Z,0.53
2023-01-31T18:18:33.421Z,0.50
2023-01-31T18:21:00.475Z,0.49
2023-01-31T18:23:27.322Z,0.50
2023-01-31T18:25:54.101Z,0.50
2023-01-31T18:28:20.859Z,0.55
2023-01-31T18:30:47.750Z,0.49
2023-01-31T18:33:14.739Z,0.38
2023-01-31T18:35:41.584Z,0.41
2023-01-31T18:38:08.783Z,0.44
2023-01-31T18:40:35.600Z,0.42
2023-01-31T18:43:02.433Z,0.44
2023-01-31T18:45:29.314Z,0.46
2023-01-31T18:47:56.232Z,0.38
2023-01-31T18:50:23.007Z,0.40
2023-01-31T18:52:49.855Z,0.39
2023-01-31T18:55:16.730Z,0.42
2023-01-31T18:57:43.444Z,0.37
2023-01-31T19:00:10.900Z,0.41
2023-01-31T19:02:37.747Z,0.34
2023-01-31T19:05:04.700Z,0.36
2023-01-31T19:07:33.387Z,0.39
2023-01-31T19:10:01.418Z,0.42
2023-01-31T19:12:28.194Z,0.38
2023-01-31T19:14:56.523Z,0.41
2023-01-31T19:17:23.492Z,0.42
2023-01-31T19:19:50.460Z,0.39
2023-01-31T19:22:17.857Z,0.39
2023-01-31T19:24:44.808Z,0.38
2023-01-31T19:27:11.610Z,0.37
2023-01-31T19:29:39.844Z,0.41
2023-01-31T19:32:06.959Z,0.39
2023-01-31T19:34:33.801Z,0.39
2023-01-31T19:37:00.606Z,0.39
2023-01-31T19:39:27.494Z,0.37
2023-01-31T19:41:54.429Z,0.36
2023-01-31T19:44:21.206Z,0.33
2023-01-31T19:46:51.466Z,0.33
2023-01-31T19:49:18.703Z,0.34
2023-01-31T19:51:45.483Z,0.31
2023-01-31T19:54:17.330Z,0.40
2023-01-31T19:56:44.192Z,0.41
2023-01-31T19:59:11.987Z,0.40
2023-01-31T20:01:38.768Z,0.39
2023-01-31T20:04:05.589Z,0.42
2023-01-31T20:06:35.236Z,0.40
2023-01-31T20:09:07.426Z,0.41
2023-01-31T20:11:35.070Z,0.37
2023-01-31T20:14:02.048Z,0.32
2023-01-31T20:16:29.216Z,0.33
2023-01-31T20:18:56.700Z,0.32
2023-01-31T20:21:23.821Z,0.28
2023-01-31T20:23:50.798Z,0.31
2023-01-31T20:26:19.518Z,0.30
2023-01-31T20:28:46.354Z,0.32
2023-01-31T20:31:14.671Z,0.33
2023-01-31T20:33:41.466Z,0.30
2023-01-31T20:36:08.809Z,0.30
2023-01-31T20:38:37.795Z,0.25
2023-01-31T20:41:06.350Z,0.24
2023-01-31T20:43:33.235Z,0.26
2023-01-31T20:46:05.059Z,0.23
2023-01-31T20:48:31.895Z,0.22
2023-01-31T20:50:58.858Z,0.24
2023-01-31T20:53:28.637Z,0.19
2023-01-31T20:56:00.893Z,0.20
2023-01-31T20:58:29.775Z,0.10
2023-01-31T21:00:57.301Z,0.08
2023-01-31T21:03:24.479Z,0.05
2023-01-31T21:05:51.488Z,0.07
2023-01-31T21:08:19.513Z,0.04
2023-01-31T21:10:50.699Z,-0.04
2023-01-31T21:13:18.149Z,-0.03
2023-01-31T21:15:56.438Z,-0.11
2023-01-31T21:18:26.105Z,-0.20
2023-01-31T21:20:53.073Z,-0.20
2023-01-31T21:23:19.847Z,-0.15
2023-01-31T21:25:46.619Z,-0.19
2023-01-31T21:28:13.767Z,-0.24
2023-01-31T21:30:40.851Z,-0.20
2023-01-31T21:33:07.896Z,-0.22
2023-01-31T21:35:34.973Z,-0.17
2023-01-31T21:38:01.718Z,-0.13
2023-01-31T21:40:28.661Z,-0.12
2023-01-31T21:42:55.531Z,-0.08
2023-01-31T21:45:40.458Z,-0.04
2023-01-31T21:48:27.206Z,-0.08
2023-01-31T21:50:54.802Z,-0.05
2023-01-31T21:53:22.186Z,0.00
2023-01-31T21:55:48.929Z,0.02
2023-01-31T21:58:16.403Z,0.02
2023-01-31T22:00:44.142Z,0.04
2023-01-31T22:03:11.417Z,0.09
2023-01-31T22:05:38.459Z,0.08
2023-01-31T22:08:05.279Z,0.15
2023-01-31T22:10:32.327Z,0.16
2023-01-31T22:12:59.176Z,0.17
2023-01-31T22:15:25.948Z,0.19
2023-01-31T22:17:53.226Z,0.25
2023-01-31T22:20:20.464Z,0.26
2023-01-31T22:22:48.671Z,0.26
2023-01-31T22:25:15.710Z,0.26
2023-01-31T22:27:42.704Z,0.21
2023-01-31T22:30:16.846Z,0.22
2023-01-31T22:32:43.917Z,0.23
2023-01-31T22:35:10.902Z,0.28
2023-01-31T22:37:37.691Z,0.23
2023-01-31T22:40:04.796Z,0.24
2023-01-31T22:42:31.566Z,0.25
2023-01-31T22:44:58.408Z,0.25
2023-01-31T22:47:25.232Z,0.23
2023-01-31T22:49:51.984Z,0.16
2023-01-31T22:52:18.750Z,0.15
2023-01-31T22:54:45.465Z,0.12
2023-01-31T22:57:12.199Z,0.10
2023-01-31T22:59:39.024Z,0.09
2023-01-31T23:02:06.558Z,0.06
2023-01-31T23:04:33.473Z,0.04
2023-01-31T23:07:00.200Z,0.03
2023-01-31T23:09:26.954Z,0.13
2023-01-31T23:11:53.713Z,0.14
2023-01-31T23:14:20.503Z,0.14
2023-01-31T23:17:25.623Z,0.12
2023-01-31T23:19:52.495Z,0.11
2023-01-31T23:22:19.246Z,0.12
2023-01-31T23:24:45.983Z,0.15
2023-01-31T23:27:12.809Z,0.22
2023-01-31T23:29:39.555Z,0.23
2023-01-31T23:32:06.494Z,0.21
2023-01-31T23:34:33.407Z,0.16
2023-01-31T23:37:00.408Z,0.17
2023-01-31T23:39:27.250Z,0.20
2023-01-31T23:41:54.050Z,0.20
2023-01-31T23:44:20.859Z,0.15
2023-01-31T23:46:47.676Z,0.11
2023-01-31T23:49:14.429Z,0.09
2023-01-31T23:51:41.703Z,0.08
2023-01-31T23:54:08.494Z,0.08
2023-01-31T23:56:35.262Z,0.09
2023-01-31T23:59:02.567Z,0.15
